sensor_id;sensor_type;location;lat;lon;timestamp;P1;durP1;ratioP1;P2;durP2;ratioP2
16193;SDS011;8204;53.582;10.080;2023-05-21T00:00:10;4.57;;;3.57;;
16193;SDS011;8204;53.582;10.080;2023-05-21T00:02:40;5.20;;;3.50;;
16193;SDS011;8204;53.582;10.080;2023-05-21T00:05:09;5.70;;;3.37;;
16193;SDS011;8204;53.582;10.080;2023-05-21T00:07:40;6.07;;;3.67;;
16193;SDS011;8204;53.582;10.080;2023-05-21T00:10:09;4.83;;;3.03;;
16193;SDS011;8204;53.582;10.080;2023-05-21T00:12:41;10.43;;;4.00;;
16193;SDS011;8204;53.582;10.080;2023-05-21T00:15:10;5.07;;;3.47;;
16193;SDS011;8204;53.582;10.080;2023-05-21T00:17:39;8.83;;;3.83;;
16193;SDS011;8204;53.582;10.080;2023-05-21T00:20:09;5.57;;;4.07;;
16193;SDS011;8204;53.582;10.080;2023-05-21T00:22:41;4.27;;;3.60;;
16193;SDS011;8204;53.582;10.080;2023-05-21T00:25:10;5.30;;;3.87;;
16193;SDS011;8204;53.582;10.080;2023-05-21T00:27:42;7.33;;;3.97;;
16193;SDS011;8204;53.582;10.080;2023-05-21T00:30:11;3.80;;;3.20;;
16193;SDS011;8204;53.582;10.080;2023-05-21T00:32:40;4.40;;;3.33;;
16193;SDS011;8204;53.582;10.080;2023-05-21T00:35:09;7.87;;;3.43;;
16193;SDS011;8204;53.582;10.080;2023-05-21T00:37:38;5.33;;;3.67;;
16193;SDS011;8204;53.582;10.080;2023-05-21T00:40:08;8.07;;;3.90;;
16193;SDS011;8204;53.582;10.080;2023-05-21T00:42:38;5.03;;;3.33;;
16193;SDS011;8204;53.582;10.080;2023-05-21T00:45:09;5.03;;;4.03;;
16193;SDS011;8204;53.582;10.080;2023-05-21T00:47:39;5.67;;;3.63;;
16193;SDS011;8204;53.582;10.080;2023-05-21T00:50:10;3.67;;;3.30;;
16193;SDS011;8204;53.582;10.080;2023-05-21T00:52:40;6.00;;;3.30;;
16193;SDS011;8204;53.582;10.080;2023-05-21T00:55:11;5.33;;;3.50;;
16193;SDS011;8204;53.582;10.080;2023-05-21T00:57:40;8.50;;;4.10;;
16193;SDS011;8204;53.582;10.080;2023-05-21T01:00:13;5.73;;;3.50;;
16193;SDS011;8204;53.582;10.080;2023-05-21T01:02:42;5.37;;;3.87;;
16193;SDS011;8204;53.582;10.080;2023-05-21T01:05:11;8.53;;;3.20;;
16193;SDS011;8204;53.582;10.080;2023-05-21T01:07:40;9.07;;;3.67;;
16193;SDS011;8204;53.582;10.080;2023-05-21T01:10:09;4.97;;;3.20;;
16193;SDS011;8204;53.582;10.080;2023-05-21T01:12:39;6.10;;;3.00;;
16193;SDS011;8204;53.582;10.080;2023-05-21T01:15:13;6.47;;;3.40;;
16193;SDS011;8204;53.582;10.080;2023-05-21T01:17:42;4.73;;;3.83;;
16193;SDS011;8204;53.582;10.080;2023-05-21T01:20:13;4.43;;;3.40;;
16193;SDS011;8204;53.582;10.080;2023-05-21T01:22:51;5.10;;;3.27;;
16193;SDS011;8204;53.582;10.080;2023-05-21T01:25:21;6.40;;;3.73;;
16193;SDS011;8204;53.582;10.080;2023-05-21T01:27:50;4.30;;;3.63;;
16193;SDS011;8204;53.582;10.080;2023-05-21T01:30:19;4.63;;;3.93;;
16193;SDS011;8204;53.582;10.080;2023-05-21T01:32:51;6.57;;;2.93;;
16193;SDS011;8204;53.582;10.080;2023-05-21T01:35:25;4.87;;;3.53;;
16193;SDS011;8204;53.582;10.080;2023-05-21T01:38:03;5.00;;;3.43;;
16193;SDS011;8204;53.582;10.080;2023-05-21T01:40:38;5.53;;;3.50;;
16193;SDS011;8204;53.582;10.080;2023-05-21T01:43:12;6.80;;;3.93;;
16193;SDS011;8204;53.582;10.080;2023-05-21T01:45:42;5.90;;;3.50;;
16193;SDS011;8204;53.582;10.080;2023-05-21T01:48:12;3.67;;;3.37;;
16193;SDS011;8204;53.582;10.080;2023-05-21T01:50:47;5.20;;;4.70;;
16193;SDS011;8204;53.582;10.080;2023-05-21T01:53:20;5.13;;;3.47;;
16193;SDS011;8204;53.582;10.080;2023-05-21T01:55:49;5.07;;;3.70;;
16193;SDS011;8204;53.582;10.080;2023-05-21T01:58:19;4.00;;;2.97;;
16193;SDS011;8204;53.582;10.080;2023-05-21T02:00:48;7.67;;;3.47;;
16193;SDS011;8204;53.582;10.080;2023-05-21T02:03:18;5.27;;;3.47;;
16193;SDS011;8204;53.582;10.080;2023-05-21T02:05:47;4.93;;;2.77;;
16193;SDS011;8204;53.582;10.080;2023-05-21T02:08:16;4.47;;;3.60;;
16193;SDS011;8204;53.582;10.080;2023-05-21T02:10:48;5.50;;;3.53;;
16193;SDS011;8204;53.582;10.080;2023-05-21T02:13:16;4.30;;;3.13;;
16193;SDS011;8204;53.582;10.080;2023-05-21T02:15:47;6.00;;;3.90;;
16193;SDS011;8204;53.582;10.080;2023-05-21T02:18:16;3.67;;;3.37;;
16193;SDS011;8204;53.582;10.080;2023-05-21T02:20:46;4.57;;;4.13;;
16193;SDS011;8204;53.582;10.080;2023-05-21T02:23:14;4.37;;;3.07;;
16193;SDS011;8204;53.582;10.080;2023-05-21T02:25:43;4.63;;;3.67;;
16193;SDS011;8204;53.582;10.080;2023-05-21T02:28:15;6.33;;;3.47;;
16193;SDS011;8204;53.582;10.080;2023-05-21T02:30:44;5.60;;;3.27;;
16193;SDS011;8204;53.582;10.080;2023-05-21T02:33:13;9.87;;;3.43;;
16193;SDS011;8204;53.582;10.080;2023-05-21T02:35:44;5.47;;;3.43;;
16193;SDS011;8204;53.582;10.080;2023-05-21T02:38:13;3.90;;;3.23;;
16193;SDS011;8204;53.582;10.080;2023-05-21T02:40:44;4.63;;;2.93;;
16193;SDS011;8204;53.582;10.080;2023-05-21T02:43:15;4.07;;;3.17;;
16193;SDS011;8204;53.582;10.080;2023-05-21T02:45:44;7.37;;;4.17;;
16193;SDS011;8204;53.582;10.080;2023-05-21T02:48:14;5.00;;;3.70;;
16193;SDS011;8204;53.582;10.080;2023-05-21T02:50:42;5.63;;;3.57;;
16193;SDS011;8204;53.582;10.080;2023-05-21T02:53:11;4.10;;;3.67;;
16193;SDS011;8204;53.582;10.080;2023-05-21T02:55:41;4.97;;;3.77;;
16193;SDS011;8204;53.582;10.080;2023-05-21T02:58:09;7.37;;;3.83;;
16193;SDS011;8204;53.582;10.080;2023-05-21T03:00:42;7.63;;;3.83;;
16193;SDS011;8204;53.582;10.080;2023-05-21T03:03:10;5.27;;;3.80;;
16193;SDS011;8204;53.582;10.080;2023-05-21T03:05:39;4.23;;;3.77;;
16193;SDS011;8204;53.582;10.080;2023-05-21T03:08:08;9.07;;;3.53;;
16193;SDS011;8204;53.582;10.080;2023-05-21T03:10:37;5.20;;;3.83;;
16193;SDS011;8204;53.582;10.080;2023-05-21T03:13:06;4.97;;;4.00;;
16193;SDS011;8204;53.582;10.080;2023-05-21T03:15:35;7.10;;;4.07;;
16193;SDS011;8204;53.582;10.080;2023-05-21T03:18:06;3.67;;;3.37;;
16193;SDS011;8204;53.582;10.080;2023-05-21T03:20:36;5.93;;;4.20;;
16193;SDS011;8204;53.582;10.080;2023-05-21T03:23:08;4.37;;;3.63;;
16193;SDS011;8204;53.582;10.080;2023-05-21T03:25:38;6.03;;;3.93;;
16193;SDS011;8204;53.582;10.080;2023-05-21T03:28:07;4.80;;;3.57;;
16193;SDS011;8204;53.582;10.080;2023-05-21T03:30:36;4.13;;;3.30;;
16193;SDS011;8204;53.582;10.080;2023-05-21T03:33:08;4.57;;;3.63;;
16193;SDS011;8204;53.582;10.080;2023-05-21T03:35:37;4.47;;;4.07;;
16193;SDS011;8204;53.582;10.080;2023-05-21T03:38:05;5.77;;;4.37;;
16193;SDS011;8204;53.582;10.080;2023-05-21T03:40:34;6.33;;;3.77;;
16193;SDS011;8204;53.582;10.080;2023-05-21T03:43:03;5.13;;;3.60;;
16193;SDS011;8204;53.582;10.080;2023-05-21T03:45:32;4.77;;;3.77;;
16193;SDS011;8204;53.582;10.080;2023-05-21T03:48:00;7.17;;;4.47;;
16193;SDS011;8204;53.582;10.080;2023-05-21T03:50:32;7.27;;;4.53;;
16193;SDS011;8204;53.582;10.080;2023-05-21T03:53:01;6.43;;;4.33;;
16193;SDS011;8204;53.582;10.080;2023-05-21T03:55:30;6.40;;;4.47;;
16193;SDS011;8204;53.582;10.080;2023-05-21T03:57:58;5.13;;;3.57;;
16193;SDS011;8204;53.582;10.080;2023-05-21T04:00:27;5.73;;;3.77;;
16193;SDS011;8204;53.582;10.080;2023-05-21T04:02:57;5.97;;;4.50;;
16193;SDS011;8204;53.582;10.080;2023-05-21T04:05:26;5.97;;;4.40;;
16193;SDS011;8204;53.582;10.080;2023-05-21T04:07:57;5.07;;;4.57;;
16193;SDS011;8204;53.582;10.080;2023-05-21T04:10:26;5.83;;;3.77;;
16193;SDS011;8204;53.582;10.080;2023-05-21T04:12:55;11.00;;;3.70;;
16193;SDS011;8204;53.582;10.080;2023-05-21T04:15:24;7.33;;;4.57;;
16193;SDS011;8204;53.582;10.080;2023-05-21T04:17:53;7.37;;;5.10;;
16193;SDS011;8204;53.582;10.080;2023-05-21T04:20:23;8.30;;;4.57;;
16193;SDS011;8204;53.582;10.080;2023-05-21T04:22:51;7.30;;;5.20;;
16193;SDS011;8204;53.582;10.080;2023-05-21T04:25:23;4.93;;;4.53;;
16193;SDS011;8204;53.582;10.080;2023-05-21T04:27:52;6.77;;;5.00;;
16193;SDS011;8204;53.582;10.080;2023-05-21T04:30:21;5.23;;;4.70;;
16193;SDS011;8204;53.582;10.080;2023-05-21T04:32:50;8.57;;;5.07;;
16193;SDS011;8204;53.582;10.080;2023-05-21T04:35:19;6.90;;;4.27;;
16193;SDS011;8204;53.582;10.080;2023-05-21T04:37:48;4.97;;;3.70;;
16193;SDS011;8204;53.582;10.080;2023-05-21T04:40:19;6.13;;;5.03;;
16193;SDS011;8204;53.582;10.080;2023-05-21T04:42:51;6.23;;;5.23;;
16193;SDS011;8204;53.582;10.080;2023-05-21T04:45:20;5.57;;;5.03;;
16193;SDS011;8204;53.582;10.080;2023-05-21T04:47:49;6.97;;;4.90;;
16193;SDS011;8204;53.582;10.080;2023-05-21T04:50:17;7.10;;;4.80;;
16193;SDS011;8204;53.582;10.080;2023-05-21T04:52:47;6.13;;;4.53;;
16193;SDS011;8204;53.582;10.080;2023-05-21T04:55:19;7.37;;;4.80;;
16193;SDS011;8204;53.582;10.080;2023-05-21T04:57:50;9.23;;;5.07;;
16193;SDS011;8204;53.582;10.080;2023-05-21T05:00:20;5.43;;;4.93;;
16193;SDS011;8204;53.582;10.080;2023-05-21T05:02:50;5.73;;;5.20;;
16193;SDS011;8204;53.582;10.080;2023-05-21T05:05:18;9.23;;;4.77;;
16193;SDS011;8204;53.582;10.080;2023-05-21T05:07:47;7.43;;;6.37;;
16193;SDS011;8204;53.582;10.080;2023-05-21T05:10:16;8.47;;;5.10;;
16193;SDS011;8204;53.582;10.080;2023-05-21T05:12:45;6.30;;;5.07;;
16193;SDS011;8204;53.582;10.080;2023-05-21T05:15:17;10.93;;;5.83;;
16193;SDS011;8204;53.582;10.080;2023-05-21T05:17:46;5.93;;;4.97;;
16193;SDS011;8204;53.582;10.080;2023-05-21T05:20:15;6.07;;;4.80;;
16193;SDS011;8204;53.582;10.080;2023-05-21T05:22:44;7.47;;;5.53;;
16193;SDS011;8204;53.582;10.080;2023-05-21T05:25:13;6.87;;;5.50;;
16193;SDS011;8204;53.582;10.080;2023-05-21T05:27:42;8.30;;;5.87;;
16193;SDS011;8204;53.582;10.080;2023-05-21T05:30:11;7.60;;;5.00;;
16193;SDS011;8204;53.582;10.080;2023-05-21T05:32:44;6.97;;;6.27;;
16193;SDS011;8204;53.582;10.080;2023-05-21T05:35:13;7.50;;;5.87;;
16193;SDS011;8204;53.582;10.080;2023-05-21T05:37:42;12.87;;;6.70;;
16193;SDS011;8204;53.582;10.080;2023-05-21T05:40:11;7.73;;;6.37;;
16193;SDS011;8204;53.582;10.080;2023-05-21T05:42:40;7.97;;;6.43;;
16193;SDS011;8204;53.582;10.080;2023-05-21T05:45:09;7.00;;;6.23;;
16193;SDS011;8204;53.582;10.080;2023-05-21T05:47:39;11.33;;;5.97;;
16193;SDS011;8204;53.582;10.080;2023-05-21T05:50:10;12.30;;;6.43;;
16193;SDS011;8204;53.582;10.080;2023-05-21T05:52:39;6.60;;;6.00;;
16193;SDS011;8204;53.582;10.080;2023-05-21T05:55:08;9.63;;;6.53;;
16193;SDS011;8204;53.582;10.080;2023-05-21T05:57:37;6.13;;;5.47;;
16193;SDS011;8204;53.582;10.080;2023-05-21T06:00:07;6.53;;;5.93;;
16193;SDS011;8204;53.582;10.080;2023-05-21T06:02:37;7.80;;;6.40;;
16193;SDS011;8204;53.582;10.080;2023-05-21T06:05:06;10.67;;;7.03;;
16193;SDS011;8204;53.582;10.080;2023-05-21T06:07:38;8.40;;;6.67;;
16193;SDS011;8204;53.582;10.080;2023-05-21T06:10:08;7.07;;;6.43;;
16193;SDS011;8204;53.582;10.080;2023-05-21T06:12:37;10.93;;;6.33;;
16193;SDS011;8204;53.582;10.080;2023-05-21T06:15:07;11.07;;;7.23;;
16193;SDS011;8204;53.582;10.080;2023-05-21T06:17:36;10.30;;;6.70;;
16193;SDS011;8204;53.582;10.080;2023-05-21T06:20:06;7.80;;;7.10;;
16193;SDS011;8204;53.582;10.080;2023-05-21T06:22:39;11.37;;;7.60;;
16193;SDS011;8204;53.582;10.080;2023-05-21T06:25:08;7.13;;;6.43;;
16193;SDS011;8204;53.582;10.080;2023-05-21T06:27:37;8.87;;;6.73;;
16193;SDS011;8204;53.582;10.080;2023-05-21T06:30:06;7.80;;;7.00;;
16193;SDS011;8204;53.582;10.080;2023-05-21T06:32:36;11.00;;;8.53;;
16193;SDS011;8204;53.582;10.080;2023-05-21T06:35:05;9.67;;;8.77;;
16193;SDS011;8204;53.582;10.080;2023-05-21T06:37:37;8.90;;;8.07;;
16193;SDS011;8204;53.582;10.080;2023-05-21T06:40:06;10.57;;;9.20;;
16193;SDS011;8204;53.582;10.080;2023-05-21T06:42:36;9.43;;;8.53;;
16193;SDS011;8204;53.582;10.080;2023-05-21T06:45:05;9.43;;;8.47;;
16193;SDS011;8204;53.582;10.080;2023-05-21T06:47:35;9.43;;;8.50;;
16193;SDS011;8204;53.582;10.080;2023-05-21T06:50:04;9.20;;;8.40;;
16193;SDS011;8204;53.582;10.080;2023-05-21T06:52:39;10.67;;;9.57;;
16193;SDS011;8204;53.582;10.080;2023-05-21T06:55:08;10.57;;;9.40;;
16193;SDS011;8204;53.582;10.080;2023-05-21T06:57:37;10.47;;;9.43;;
16193;SDS011;8204;53.582;10.080;2023-05-21T07:00:06;17.27;;;9.67;;
16193;SDS011;8204;53.582;10.080;2023-05-21T07:02:36;9.63;;;8.43;;
16193;SDS011;8204;53.582;10.080;2023-05-21T07:05:05;14.70;;;9.47;;
16193;SDS011;8204;53.582;10.080;2023-05-21T07:07:35;9.73;;;8.73;;
16193;SDS011;8204;53.582;10.080;2023-05-21T07:33:32;11.03;;;10.03;;
16193;SDS011;8204;53.582;10.080;2023-05-21T07:36:01;12.17;;;10.87;;
16193;SDS011;8204;53.582;10.080;2023-05-21T07:38:30;11.50;;;10.40;;
16193;SDS011;8204;53.582;10.080;2023-05-21T07:40:59;10.70;;;9.70;;
16193;SDS011;8204;53.582;10.080;2023-05-21T07:43:28;11.83;;;10.70;;
16193;SDS011;8204;53.582;10.080;2023-05-21T07:45:58;12.57;;;9.83;;
16193;SDS011;8204;53.582;10.080;2023-05-21T07:48:27;12.73;;;11.47;;
16193;SDS011;8204;53.582;10.080;2023-05-21T07:50:59;13.90;;;11.80;;
16193;SDS011;8204;53.582;10.080;2023-05-21T07:53:28;12.43;;;11.20;;
16193;SDS011;8204;53.582;10.080;2023-05-21T07:55:58;14.13;;;12.77;;
16193;SDS011;8204;53.582;10.080;2023-05-21T07:58:27;13.63;;;12.43;;
16193;SDS011;8204;53.582;10.080;2023-05-21T08:00:55;11.87;;;10.87;;
16193;SDS011;8204;53.582;10.080;2023-05-21T08:03:25;12.13;;;11.13;;
16193;SDS011;8204;53.582;10.080;2023-05-21T08:05:55;13.50;;;12.10;;
16193;SDS011;8204;53.582;10.080;2023-05-21T08:08:26;12.43;;;11.33;;
16193;SDS011;8204;53.582;10.080;2023-05-21T08:10:55;14.67;;;13.23;;
16193;SDS011;8204;53.582;10.080;2023-05-21T08:13:24;12.77;;;11.53;;
16193;SDS011;8204;53.582;10.080;2023-05-21T08:15:53;14.90;;;13.60;;
16193;SDS011;8204;53.582;10.080;2023-05-21T08:18:22;13.10;;;11.80;;
16193;SDS011;8204;53.582;10.080;2023-05-21T08:20:51;13.47;;;12.13;;
16193;SDS011;8204;53.582;10.080;2023-05-21T08:23:28;13.53;;;12.40;;
16193;SDS011;8204;53.582;10.080;2023-05-21T08:25:57;14.20;;;12.97;;
16193;SDS011;8204;53.582;10.080;2023-05-21T08:28:26;14.70;;;13.20;;
16193;SDS011;8204;53.582;10.080;2023-05-21T08:30:55;14.87;;;13.50;;
16193;SDS011;8204;53.582;10.080;2023-05-21T08:33:24;14.13;;;12.87;;
16193;SDS011;8204;53.582;10.080;2023-05-21T08:35:52;14.10;;;12.80;;
16193;SDS011;8204;53.582;10.080;2023-05-21T08:38:21;16.80;;;14.60;;
16193;SDS011;8204;53.582;10.080;2023-05-21T08:40:53;19.00;;;14.00;;
16193;SDS011;8204;53.582;10.080;2023-05-21T08:43:22;15.27;;;13.90;;
16193;SDS011;8204;53.582;10.080;2023-05-21T08:45:55;15.97;;;14.50;;
16193;SDS011;8204;53.582;10.080;2023-05-21T08:48:28;15.07;;;13.60;;
16193;SDS011;8204;53.582;10.080;2023-05-21T08:50:58;16.93;;;15.40;;
16193;SDS011;8204;53.582;10.080;2023-05-21T08:53:28;18.43;;;14.97;;
16193;SDS011;8204;53.582;10.080;2023-05-21T08:56:02;13.93;;;12.57;;
16193;SDS011;8204;53.582;10.080;2023-05-21T08:58:32;14.73;;;13.23;;
16193;SDS011;8204;53.582;10.080;2023-05-21T09:01:02;18.10;;;14.77;;
16193;SDS011;8204;53.582;10.080;2023-05-21T09:03:32;15.97;;;14.57;;
16193;SDS011;8204;53.582;10.080;2023-05-21T09:06:03;16.00;;;14.70;;
16193;SDS011;8204;53.582;10.080;2023-05-21T09:08:34;16.57;;;14.90;;
16193;SDS011;8204;53.582;10.080;2023-05-21T09:11:08;18.53;;;16.73;;
16193;SDS011;8204;53.582;10.080;2023-05-21T09:13:38;19.10;;;17.27;;
16193;SDS011;8204;53.582;10.080;2023-05-21T09:16:09;17.30;;;15.80;;
16193;SDS011;8204;53.582;10.080;2023-05-21T09:18:37;16.90;;;15.50;;
16193;SDS011;8204;53.582;10.080;2023-05-21T09:21:21;16.03;;;14.70;;
16193;SDS011;8204;53.582;10.080;2023-05-21T09:23:53;18.67;;;16.87;;
16193;SDS011;8204;53.582;10.080;2023-05-21T09:26:25;17.63;;;15.73;;
16193;SDS011;8204;53.582;10.080;2023-05-21T09:28:56;18.40;;;16.60;;
16193;SDS011;8204;53.582;10.080;2023-05-21T09:31:25;17.60;;;16.13;;
16193;SDS011;8204;53.582;10.080;2023-05-21T09:33:54;18.53;;;16.93;;
16193;SDS011;8204;53.582;10.080;2023-05-21T09:36:23;18.67;;;16.93;;
16193;SDS011;8204;53.582;10.080;2023-05-21T09:38:53;17.57;;;16.00;;
16193;SDS011;8204;53.582;10.080;2023-05-21T09:41:32;16.67;;;15.03;;
16193;SDS011;8204;53.582;10.080;2023-05-21T09:44:02;16.03;;;14.67;;
16193;SDS011;8204;53.582;10.080;2023-05-21T09:46:38;18.47;;;16.77;;
16193;SDS011;8204;53.582;10.080;2023-05-21T09:49:11;17.33;;;15.83;;
16193;SDS011;8204;53.582;10.080;2023-05-21T09:51:53;16.80;;;15.37;;
16193;SDS011;8204;53.582;10.080;2023-05-21T09:54:23;18.60;;;16.87;;
16193;SDS011;8204;53.582;10.080;2023-05-21T09:56:54;17.07;;;15.67;;
16193;SDS011;8204;53.582;10.080;2023-05-21T09:59:23;17.93;;;16.27;;
16193;SDS011;8204;53.582;10.080;2023-05-21T10:02:02;19.23;;;17.23;;
16193;SDS011;8204;53.582;10.080;2023-05-21T10:04:41;16.53;;;15.03;;
16193;SDS011;8204;53.582;10.080;2023-05-21T10:07:11;17.03;;;15.50;;
16193;SDS011;8204;53.582;10.080;2023-05-21T10:09:42;17.10;;;15.60;;
16193;SDS011;8204;53.582;10.080;2023-05-21T10:12:17;17.07;;;15.63;;
16193;SDS011;8204;53.582;10.080;2023-05-21T10:14:49;18.90;;;17.23;;
16193;SDS011;8204;53.582;10.080;2023-05-21T10:17:19;16.73;;;15.20;;
16193;SDS011;8204;53.582;10.080;2023-05-21T10:19:50;17.57;;;15.97;;
16193;SDS011;8204;53.582;10.080;2023-05-21T10:22:22;18.53;;;16.63;;
16193;SDS011;8204;53.582;10.080;2023-05-21T10:24:52;19.03;;;16.63;;
16193;SDS011;8204;53.582;10.080;2023-05-21T10:27:24;79.73;;;59.60;;
16193;SDS011;8204;53.582;10.080;2023-05-21T10:29:54;22.13;;;20.03;;
16193;SDS011;8204;53.582;10.080;2023-05-21T10:32:24;19.00;;;17.30;;
16193;SDS011;8204;53.582;10.080;2023-05-21T10:34:54;18.60;;;17.07;;
16193;SDS011;8204;53.582;10.080;2023-05-21T10:37:24;19.90;;;18.10;;
16193;SDS011;8204;53.582;10.080;2023-05-21T10:39:54;17.67;;;16.13;;
16193;SDS011;8204;53.582;10.080;2023-05-21T10:42:38;22.63;;;20.70;;
16193;SDS011;8204;53.582;10.080;2023-05-21T10:45:21;22.53;;;20.67;;
16193;SDS011;8204;53.582;10.080;2023-05-21T10:48:04;18.93;;;17.27;;
16193;SDS011;8204;53.582;10.080;2023-05-21T10:50:49;22.53;;;20.10;;
16193;SDS011;8204;53.582;10.080;2023-05-21T10:53:36;18.13;;;16.63;;
16193;SDS011;8204;53.582;10.080;2023-05-21T10:56:16;18.33;;;16.87;;
16193;SDS011;8204;53.582;10.080;2023-05-21T10:59:06;25.77;;;23.43;;
16193;SDS011;8204;53.582;10.080;2023-05-21T11:01:47;19.97;;;18.30;;
16193;SDS011;8204;53.582;10.080;2023-05-21T11:04:20;19.13;;;17.33;;
16193;SDS011;8204;53.582;10.080;2023-05-21T11:06:50;17.80;;;16.17;;
16193;SDS011;8204;53.582;10.080;2023-05-21T11:09:19;15.97;;;14.67;;
16193;SDS011;8204;53.582;10.080;2023-05-21T11:11:49;15.80;;;14.50;;
16193;SDS011;8204;53.582;10.080;2023-05-21T11:14:28;14.17;;;12.90;;
16193;SDS011;8204;53.582;10.080;2023-05-21T11:17:00;15.13;;;13.80;;
16193;SDS011;8204;53.582;10.080;2023-05-21T11:19:33;14.63;;;13.40;;
16193;SDS011;8204;53.582;10.080;2023-05-21T11:22:05;13.90;;;12.70;;
16193;SDS011;8204;53.582;10.080;2023-05-21T11:24:37;12.77;;;11.57;;
16193;SDS011;8204;53.582;10.080;2023-05-21T11:27:08;13.43;;;12.33;;
16193;SDS011;8204;53.582;10.080;2023-05-21T11:29:40;16.17;;;12.60;;
16193;SDS011;8204;53.582;10.080;2023-05-21T11:32:12;15.20;;;13.80;;
16193;SDS011;8204;53.582;10.080;2023-05-21T11:34:46;15.57;;;13.43;;
16193;SDS011;8204;53.582;10.080;2023-05-21T11:37:25;13.00;;;11.70;;
16193;SDS011;8204;53.582;10.080;2023-05-21T11:42:56;13.30;;;12.00;;
16193;SDS011;8204;53.582;10.080;2023-05-21T11:45:29;13.50;;;11.80;;
16193;SDS011;8204;53.582;10.080;2023-05-21T11:48:00;13.77;;;12.60;;
16193;SDS011;8204;53.582;10.080;2023-05-21T11:50:29;12.40;;;11.40;;
16193;SDS011;8204;53.582;10.080;2023-05-21T11:52:59;14.13;;;12.73;;
16193;SDS011;8204;53.582;10.080;2023-05-21T11:55:28;14.93;;;13.50;;
16193;SDS011;8204;53.582;10.080;2023-05-21T11:57:57;13.80;;;12.67;;
16193;SDS011;8204;53.582;10.080;2023-05-21T12:00:29;13.40;;;12.23;;
16193;SDS011;8204;53.582;10.080;2023-05-21T12:02:59;12.93;;;11.83;;
16193;SDS011;8204;53.582;10.080;2023-05-21T12:05:28;14.17;;;12.63;;
16193;SDS011;8204;53.582;10.080;2023-05-21T12:07:57;14.73;;;13.43;;
16193;SDS011;8204;53.582;10.080;2023-05-21T12:10:26;12.83;;;11.63;;
16193;SDS011;8204;53.582;10.080;2023-05-21T12:12:55;12.83;;;11.83;;
16193;SDS011;8204;53.582;10.080;2023-05-21T12:15:25;13.40;;;12.33;;
16193;SDS011;8204;53.582;10.080;2023-05-21T12:17:56;14.70;;;13.47;;
16193;SDS011;8204;53.582;10.080;2023-05-21T12:20:25;14.90;;;13.43;;
16193;SDS011;8204;53.582;10.080;2023-05-21T12:22:58;14.40;;;13.20;;
16193;SDS011;8204;53.582;10.080;2023-05-21T12:25:27;13.93;;;12.80;;
16193;SDS011;8204;53.582;10.080;2023-05-21T12:27:56;14.17;;;12.87;;
16193;SDS011;8204;53.582;10.080;2023-05-21T12:30:28;14.27;;;13.13;;
16193;SDS011;8204;53.582;10.080;2023-05-21T12:33:00;16.00;;;14.37;;
16193;SDS011;8204;53.582;10.080;2023-05-21T12:35:29;13.53;;;12.37;;
16193;SDS011;8204;53.582;10.080;2023-05-21T12:37:59;13.53;;;12.53;;
16193;SDS011;8204;53.582;10.080;2023-05-21T12:40:34;14.73;;;13.47;;
16193;SDS011;8204;53.582;10.080;2023-05-21T12:43:05;14.77;;;13.37;;
16193;SDS011;8204;53.582;10.080;2023-05-21T12:45:34;14.33;;;13.03;;
16193;SDS011;8204;53.582;10.080;2023-05-21T12:48:06;13.80;;;12.67;;
16193;SDS011;8204;53.582;10.080;2023-05-21T12:50:39;13.47;;;12.47;;
16193;SDS011;8204;53.582;10.080;2023-05-21T12:53:08;14.70;;;13.33;;
16193;SDS011;8204;53.582;10.080;2023-05-21T12:55:38;14.73;;;13.53;;
16193;SDS011;8204;53.582;10.080;2023-05-21T12:58:09;14.23;;;13.13;;
16193;SDS011;8204;53.582;10.080;2023-05-21T13:00:41;15.33;;;14.13;;
16193;SDS011;8204;53.582;10.080;2023-05-21T13:03:13;14.90;;;13.47;;
16193;SDS011;8204;53.582;10.080;2023-05-21T13:05:43;15.23;;;13.60;;
16193;SDS011;8204;53.582;10.080;2023-05-21T13:08:11;14.93;;;13.57;;
16193;SDS011;8204;53.582;10.080;2023-05-21T13:10:41;13.93;;;12.77;;
16193;SDS011;8204;53.582;10.080;2023-05-21T13:13:10;13.90;;;12.57;;
16193;SDS011;8204;53.582;10.080;2023-05-21T13:15:39;14.93;;;13.53;;
16193;SDS011;8204;53.582;10.080;2023-05-21T13:18:08;14.03;;;12.83;;
16193;SDS011;8204;53.582;10.080;2023-05-21T13:20:39;14.40;;;12.97;;
16193;SDS011;8204;53.582;10.080;2023-05-21T13:23:08;14.73;;;13.33;;
16193;SDS011;8204;53.582;10.080;2023-05-21T13:25:37;14.17;;;12.87;;
16193;SDS011;8204;53.582;10.080;2023-05-21T13:28:06;15.00;;;13.63;;
16193;SDS011;8204;53.582;10.080;2023-05-21T13:30:39;14.17;;;12.87;;
16193;SDS011;8204;53.582;10.080;2023-05-21T13:33:08;14.40;;;13.10;;
16193;SDS011;8204;53.582;10.080;2023-05-21T13:35:40;14.70;;;13.27;;
16193;SDS011;8204;53.582;10.080;2023-05-21T13:38:10;16.53;;;15.03;;
16193;SDS011;8204;53.582;10.080;2023-05-21T13:40:38;14.23;;;13.03;;
16193;SDS011;8204;53.582;10.080;2023-05-21T13:43:07;13.63;;;12.53;;
16193;SDS011;8204;53.582;10.080;2023-05-21T13:45:36;14.87;;;13.50;;
16193;SDS011;8204;53.582;10.080;2023-05-21T13:48:05;18.60;;;16.60;;
16193;SDS011;8204;53.582;10.080;2023-05-21T13:50:34;17.67;;;15.13;;
16193;SDS011;8204;53.582;10.080;2023-05-21T13:53:05;20.47;;;18.40;;
16193;SDS011;8204;53.582;10.080;2023-05-21T13:55:34;13.83;;;12.73;;
16193;SDS011;8204;53.582;10.080;2023-05-21T13:58:02;14.80;;;13.27;;
16193;SDS011;8204;53.582;10.080;2023-05-21T14:00:31;12.60;;;11.50;;
16193;SDS011;8204;53.582;10.080;2023-05-21T14:03:00;13.03;;;12.03;;
16193;SDS011;8204;53.582;10.080;2023-05-21T14:05:31;15.97;;;13.50;;
16193;SDS011;8204;53.582;10.080;2023-05-21T14:08:00;12.73;;;11.73;;
16193;SDS011;8204;53.582;10.080;2023-05-21T14:10:32;13.23;;;11.93;;
16193;SDS011;8204;53.582;10.080;2023-05-21T14:13:01;13.03;;;11.97;;
16193;SDS011;8204;53.582;10.080;2023-05-21T14:15:29;12.90;;;11.70;;
16193;SDS011;8204;53.582;10.080;2023-05-21T14:17:58;13.13;;;11.77;;
16193;SDS011;8204;53.582;10.080;2023-05-21T14:20:32;12.33;;;11.27;;
16193;SDS011;8204;53.582;10.080;2023-05-21T14:23:01;12.47;;;11.47;;
16193;SDS011;8204;53.582;10.080;2023-05-21T14:25:32;11.10;;;10.30;;
16193;SDS011;8204;53.582;10.080;2023-05-21T14:28:01;13.43;;;12.07;;
16193;SDS011;8204;53.582;10.080;2023-05-21T14:30:30;11.73;;;10.47;;
16193;SDS011;8204;53.582;10.080;2023-05-21T14:32:58;12.20;;;11.20;;
16193;SDS011;8204;53.582;10.080;2023-05-21T14:35:27;12.20;;;11.37;;
16193;SDS011;8204;53.582;10.080;2023-05-21T14:37:56;12.93;;;11.37;;
16193;SDS011;8204;53.582;10.080;2023-05-21T14:40:25;12.07;;;10.97;;
16193;SDS011;8204;53.582;10.080;2023-05-21T14:42:56;12.23;;;11.10;;
16193;SDS011;8204;53.582;10.080;2023-05-21T14:45:25;11.67;;;10.67;;
16193;SDS011;8204;53.582;10.080;2023-05-21T14:47:54;12.07;;;10.90;;
16193;SDS011;8204;53.582;10.080;2023-05-21T14:50:27;10.13;;;9.33;;
16193;SDS011;8204;53.582;10.080;2023-05-21T14:52:56;10.77;;;9.23;;
16193;SDS011;8204;53.582;10.080;2023-05-21T14:55:25;11.97;;;10.87;;
16193;SDS011;8204;53.582;10.080;2023-05-21T14:57:57;10.93;;;10.03;;
16193;SDS011;8204;53.582;10.080;2023-05-21T15:00:26;11.10;;;10.10;;
16193;SDS011;8204;53.582;10.080;2023-05-21T15:02:55;12.80;;;11.47;;
16193;SDS011;8204;53.582;10.080;2023-05-21T15:05:24;12.40;;;11.10;;
16193;SDS011;8204;53.582;10.080;2023-05-21T15:07:54;10.90;;;9.87;;
16193;SDS011;8204;53.582;10.080;2023-05-21T15:10:23;10.33;;;9.63;;
16193;SDS011;8204;53.582;10.080;2023-05-21T15:12:53;10.33;;;9.43;;
16193;SDS011;8204;53.582;10.080;2023-05-21T15:15:24;11.27;;;10.17;;
16193;SDS011;8204;53.582;10.080;2023-05-21T15:17:53;13.03;;;11.73;;